Cape Town, South Africa

1:57 AM SAST on May 30, 2015 (GMT +0200)
Cape Town International | | Change Station
CLOSE
Current Station
Airport
Location: Cape Town,
Elevation: 138 ft
Nearby Weather Stations

Elev 138 ft 33.96 °S, 18.60 °E | Updated 57 minutes ago

Mostly Cloudy
Mostly Cloudy
59 °F
Feels Like 59 °F
N
10
Wind Variable Wind from NNW

Today
High -- | Low -- °F
--% Chance of Precip.
Yesterday
High -- | Low -- °F
Precip. -- in
7:40 AM 5:45 PM
Waxing Gibbous, 86% visible
Pressure 29.95 in
Visibility 6.2 miles
Clouds Scattered Clouds 700 ft
Mostly Cloudy 2000 ft
Dew Point 57 °F
Humidity 94%
Rainfall 0.00 in
Snow Depth Not available.
UV 0 out of 12
Pollen Not available.
Air Quality Not available.
Flu Activity Not available.
METAR FACT 292300Z 34009KT 9999 SCT007 BKN020 15/14 Q1014 TEMPO 5000 RA BKN006

More Conditions Fewer Conditions

Pressure 29.95 in
Visibility 6.2 miles
Clouds Scattered Clouds 700 ft
Mostly Cloudy 2000 ft
Dew Point 57 °F
Humidity 94%
Rainfall 0.00 in
Snow Depth Not available.
UV 0 out of 12
Pollen Not available.
Air Quality Not available.
Flu Activity Not available.
METAR FACT 292300Z 34009KT 9999 SCT007 BKN020 15/14 Q1014 TEMPO 5000 RA BKN006

More Conditions Fewer Conditions

10-Day Weather Forecast

Almanac

Astronomy

May. 30, 2015 Rise Set
Actual Time
Civil Twilight
Nautical Twilight
Astronomical Twilight
Moon
Length of Visible Light
Length of Day
Tomorrow will be .
, % of the Moon is Illuminated

Today's Extremes

Country Highs Country Lows

Community

WunderPhotos

Upload Photos

1,825,402 photos uploaded!

WunderBlogs® & News

Nearby

Air Quality

  Air Quality AQ Index Pollutant
Not available.

Snow Depth

Station Depth Elevation

Earthquake Activity

City Distance Mag. Time & Date
Minimum magnitude displayed is 2.5.

Coastal Water Temperatures

Place Temperature

Stations

Nearby Weather Stations

Station Location Temp. Windchill Dew Point Humidity Wind Precip. Elev Updated Type